Endurance — WDI5446 — position and weather

sailwx.info

Track history (hours):
 
Tides and Currents Weather Stations Pressure Air Temp Water Temp Dewpoint Dewpoint Depression Visibility Wind Speed Wind Dir Waves Ship Positions

Endurance

Owner: Sail Endurance, LLC, Sunnyvale, CA. More information available from US FCC via Universal Licensing System and Coast Guard Vessel Documentation Center.

Last reported at 2017-Sep-26 00:31 UTC. Time now 2017-Oct-18 12:48 UTC.
Position N 37°35' W 122°15'.
Warning: this ship's position is 22 days out of date.

Length 15 m.

Type: Sailing vessel. MMSI: 367355790.

Date/timePositionNaut miles runAvg speedWind from/ knotsBaromVisibWave heightAir tempDewpointWater temp
2017-Sep-26 00:31N 37°35' W 122°15'1 5.6
2017-Sep-26 00:21N 37°36' W 122°16'2 6.0
2017-Sep-26 00:00N 37°37' W 122°17'4 7.1
2017-Sep-25 23:30N 37°40' W 122°20'3 7.0
2017-Sep-25 23:00N 37°44' W 122°21'4 7.5
2017-Sep-25 22:29N 37°47' W 122°23'3 5.4
2017-Sep-25 22:00N 37°49' W 122°25'3 5.2
2017-Sep-25 21:30N 37°50' W 122°28'19 6.8
2017-Sep-25 18:38N 37°56' W 122°51'2 6.3
2017-Sep-25 18:22N 37°57' W 122°53'2 6.3
2017-Sep-25 18:00N 37°59' W 122°55'3 5.6
2017-Sep-25 17:30N 37°60' W 122°58'0 0.0
2017-Sep-25 02:33N 37°60' W 122°58'0 1.2
2017-Sep-25 02:30N 37°60' W 122°58'2 4.5
2017-Sep-25 02:00N 37°59' W 122°56'21 7.0
2017-Sep-24 22:57N 37°49' W 122°32'3 5.7
2017-Sep-24 22:30N 37°49' W 122°29'3 5.2
2017-Sep-24 22:00N 37°50' W 122°26'3 5.6
2017-Sep-24 21:30N 37°50' W 122°22'1 2.3
2017-Sep-24 20:58N 37°49' W 122°22'0 0.0
2017-Sep-24 20:28N 37°49' W 122°22'0 0.0
2017-Sep-24 00:18N 37°49' W 122°22'0 0.0
2017-Sep-24 00:00N 37°49' W 122°22'0 0.2
2017-Sep-23 23:19N 37°49' W 122°22'0 0.2
2017-Sep-23 23:00N 37°49' W 122°22'1 1.1
2017-Sep-23 22:30N 37°49' W 122°22'3 5.4
2017-Sep-23 22:00N 37°47' W 122°20'3 6.0
2017-Sep-23 21:30N 37°44' W 122°19'3 5.4
2017-Sep-23 21:00N 37°42' W 122°18'3 6.3
2017-Sep-23 20:29N 37°39' W 122°16'  
Track history (hours):
 
Tides and Currents Weather Stations Pressure Air Temp Water Temp Dewpoint Dewpoint Depression Visibility Wind Speed Wind Dir Waves Ship Positions

Endurance

Owner: Sail Endurance, LLC, Sunnyvale, CA. More information available from US FCC via Universal Licensing System and Coast Guard Vessel Documentation Center.

Last reported at 2017-Sep-26 00:31 UTC. Time now 2017-Oct-18 12:48 UTC.
Position N 37°35' W 122°15'.
Warning: this ship's position is 22 days out of date.

Length 15 m.

Type: Sailing vessel. MMSI: 367355790.

Date/timePositionNaut miles runAvg speedWind from/ knotsBaromVisibWave heightAir tempDewpointWater temp
2017-Sep-26 00:31N 37°35' W 122°15'1 5.6
2017-Sep-26 00:21N 37°36' W 122°16'2 6.0
2017-Sep-26 00:00N 37°37' W 122°17'4 7.1
2017-Sep-25 23:30N 37°40' W 122°20'3 7.0
2017-Sep-25 23:00N 37°44' W 122°21'4 7.5
2017-Sep-25 22:29N 37°47' W 122°23'3 5.4
2017-Sep-25 22:00N 37°49' W 122°25'3 5.2
2017-Sep-25 21:30N 37°50' W 122°28'19 6.8
2017-Sep-25 18:38N 37°56' W 122°51'2 6.3
2017-Sep-25 18:22N 37°57' W 122°53'2 6.3
2017-Sep-25 18:00N 37°59' W 122°55'3 5.6
2017-Sep-25 17:30N 37°60' W 122°58'0 0.0
2017-Sep-25 02:33N 37°60' W 122°58'0 1.2
2017-Sep-25 02:30N 37°60' W 122°58'2 4.5
2017-Sep-25 02:00N 37°59' W 122°56'21 7.0
2017-Sep-24 22:57N 37°49' W 122°32'3 5.7
2017-Sep-24 22:30N 37°49' W 122°29'3 5.2
2017-Sep-24 22:00N 37°50' W 122°26'3 5.6
2017-Sep-24 21:30N 37°50' W 122°22'1 2.3
2017-Sep-24 20:58N 37°49' W 122°22'0 0.0
2017-Sep-24 20:28N 37°49' W 122°22'0 0.0
2017-Sep-24 00:18N 37°49' W 122°22'0 0.0
2017-Sep-24 00:00N 37°49' W 122°22'0 0.2
2017-Sep-23 23:19N 37°49' W 122°22'0 0.2
2017-Sep-23 23:00N 37°49' W 122°22'1 1.1
2017-Sep-23 22:30N 37°49' W 122°22'3 5.4
2017-Sep-23 22:00N 37°47' W 122°20'3 6.0
2017-Sep-23 21:30N 37°44' W 122°19'3 5.4
2017-Sep-23 21:00N 37°42' W 122°18'3 6.3
2017-Sep-23 20:29N 37°39' W 122°16'  

Dump ship's entire track history